Decoded Metar for LFOK (CHALONS in FRANCE) (IATA:N/A) | Meteo·Mobile Aviation Weather
aviador You're here:

LFOK Decoded Metar

CHALONS in FRANCE
Report Time2018-10-17 05:30:00
UTC Time2018-10-17 05:41:33
Flight Rules mvfr MVFR
Wind100° at 03 kt
W.Decomp.*RWY 10: 3.0 kt HW -0 kt LCW
W.Rank100° ranks 34
Current wind is below 100° avg. (6.8)
Visibility6000 m
Phenomena:N/A
Clouds:N/A
Expected CloudBase > 400 ft AGL from Temp-Dew spread
CeilingNone
Temp08°C (ISA -6)
Dew Point07°C (93% RH)
AAT6.2°C
QNH1018 hPa
Density Alt-213 ft
Elevation531 ft
Report Wrong Elevation
Raw Report
METAR LFOK 170530Z AUTO 10003KT 6000 NSC 08/07 Q1018 NOSIG=

Extra information for LFOK:More info

Metar Taf Metar & Taf Last 4 Metars F.Rules Stats Wind Profile Meteogram Temp Stats Airport Information Weather charts Add Link Nearby VenuesMetar ALERT Operation Metar Decoded Social comments